sensor_id;sensor_type;location;lat;lon;timestamp;temperature;humidity
52034;DHT22;38045;52.988;6.536;2024-02-21T00:00:55;9.20;76.00
52034;DHT22;38045;52.988;6.536;2024-02-21T00:03:21;9.20;76.00
52034;DHT22;38045;52.988;6.536;2024-02-21T00:05:47;9.20;75.90
52034;DHT22;38045;52.988;6.536;2024-02-21T00:08:12;9.10;76.00
52034;DHT22;38045;52.988;6.536;2024-02-21T00:10:38;9.10;76.00
52034;DHT22;38045;52.988;6.536;2024-02-21T00:13:04;9.10;76.00
52034;DHT22;38045;52.988;6.536;2024-02-21T00:15:29;9.10;76.00
52034;DHT22;38045;52.988;6.536;2024-02-21T00:17:55;9.00;76.10
52034;DHT22;38045;52.988;6.536;2024-02-21T00:20:20;9.00;76.10
52034;DHT22;38045;52.988;6.536;2024-02-21T00:22:46;9.10;76.00
52034;DHT22;38045;52.988;6.536;2024-02-21T00:25:12;9.10;76.00
52034;DHT22;38045;52.988;6.536;2024-02-21T00:27:38;9.10;76.10
52034;DHT22;38045;52.988;6.536;2024-02-21T00:30:04;9.00;76.20
52034;DHT22;38045;52.988;6.536;2024-02-21T00:32:30;9.10;76.10
52034;DHT22;38045;52.988;6.536;2024-02-21T00:34:57;9.10;76.00
52034;DHT22;38045;52.988;6.536;2024-02-21T00:37:23;9.10;76.10
52034;DHT22;38045;52.988;6.536;2024-02-21T00:39:48;9.10;76.10
52034;DHT22;38045;52.988;6.536;2024-02-21T00:42:14;9.00;76.20
52034;DHT22;38045;52.988;6.536;2024-02-21T00:44:39;9.00;76.10
52034;DHT22;38045;52.988;6.536;2024-02-21T00:47:05;9.00;76.10
52034;DHT22;38045;52.988;6.536;2024-02-21T00:49:31;9.00;76.30
52034;DHT22;38045;52.988;6.536;2024-02-21T00:51:56;9.00;76.30
52034;DHT22;38045;52.988;6.536;2024-02-21T00:54:22;9.00;76.40
52034;DHT22;38045;52.988;6.536;2024-02-21T00:56:48;9.00;76.50
52034;DHT22;38045;52.988;6.536;2024-02-21T00:59:13;9.00;76.60
52034;DHT22;38045;52.988;6.536;2024-02-21T01:01:39;9.00;76.70
52034;DHT22;38045;52.988;6.536;2024-02-21T01:04:08;9.00;76.80
52034;DHT22;38045;52.988;6.536;2024-02-21T01:06:34;9.00;76.80
52034;DHT22;38045;52.988;6.536;2024-02-21T01:08:59;8.90;77.10
52034;DHT22;38045;52.988;6.536;2024-02-21T01:11:25;8.90;77.20
52034;DHT22;38045;52.988;6.536;2024-02-21T01:13:51;8.90;77.20
52034;DHT22;38045;52.988;6.536;2024-02-21T01:16:16;8.90;77.20
52034;DHT22;38045;52.988;6.536;2024-02-21T01:18:42;8.90;77.20
52034;DHT22;38045;52.988;6.536;2024-02-21T01:21:08;8.80;77.30
52034;DHT22;38045;52.988;6.536;2024-02-21T01:23:35;8.80;77.40
52034;DHT22;38045;52.988;6.536;2024-02-21T01:26:02;8.80;77.50
52034;DHT22;38045;52.988;6.536;2024-02-21T01:28:27;8.80;77.60
52034;DHT22;38045;52.988;6.536;2024-02-21T01:30:53;8.80;77.60
52034;DHT22;38045;52.988;6.536;2024-02-21T01:33:18;8.80;77.80
52034;DHT22;38045;52.988;6.536;2024-02-21T01:35:44;8.80;77.70
52034;DHT22;38045;52.988;6.536;2024-02-21T01:38:12;8.80;77.90
52034;DHT22;38045;52.988;6.536;2024-02-21T01:40:38;8.70;78.00
52034;DHT22;38045;52.988;6.536;2024-02-21T01:43:03;8.70;78.10
52034;DHT22;38045;52.988;6.536;2024-02-21T01:45:29;8.60;78.50
52034;DHT22;38045;52.988;6.536;2024-02-21T01:47:55;8.60;78.70
52034;DHT22;38045;52.988;6.536;2024-02-21T01:50:22;8.60;79.00
52034;DHT22;38045;52.988;6.536;2024-02-21T01:52:49;8.50;79.10
52034;DHT22;38045;52.988;6.536;2024-02-21T01:55:16;8.50;79.30
52034;DHT22;38045;52.988;6.536;2024-02-21T01:57:42;8.50;79.60
52034;DHT22;38045;52.988;6.536;2024-02-21T02:00:12;8.40;79.70
52034;DHT22;38045;52.988;6.536;2024-02-21T02:02:38;8.40;79.70
52034;DHT22;38045;52.988;6.536;2024-02-21T02:05:06;8.40;79.60
52034;DHT22;38045;52.988;6.536;2024-02-21T02:07:32;8.40;79.90
52034;DHT22;38045;52.988;6.536;2024-02-21T02:09:58;8.40;80.10
52034;DHT22;38045;52.988;6.536;2024-02-21T02:12:24;8.40;80.20
52034;DHT22;38045;52.988;6.536;2024-02-21T02:15:03;8.40;80.20
52034;DHT22;38045;52.988;6.536;2024-02-21T02:17:32;8.40;80.40
52034;DHT22;38045;52.988;6.536;2024-02-21T02:19:57;8.40;80.10
52034;DHT22;38045;52.988;6.536;2024-02-21T02:22:28;8.40;80.40
52034;DHT22;38045;52.988;6.536;2024-02-21T02:24:54;8.30;80.50
52034;DHT22;38045;52.988;6.536;2024-02-21T02:27:20;8.30;80.70
52034;DHT22;38045;52.988;6.536;2024-02-21T02:29:48;8.30;80.90
52034;DHT22;38045;52.988;6.536;2024-02-21T02:32:14;8.30;80.90
52034;DHT22;38045;52.988;6.536;2024-02-21T02:34:39;8.30;80.80
52034;DHT22;38045;52.988;6.536;2024-02-21T02:37:05;8.30;81.00
52034;DHT22;38045;52.988;6.536;2024-02-21T02:39:30;8.30;81.00
52034;DHT22;38045;52.988;6.536;2024-02-21T02:41:56;8.30;81.10
52034;DHT22;38045;52.988;6.536;2024-02-21T02:44:22;8.20;81.00
52034;DHT22;38045;52.988;6.536;2024-02-21T02:46:47;8.30;81.20
52034;DHT22;38045;52.988;6.536;2024-02-21T02:49:13;8.30;81.20
52034;DHT22;38045;52.988;6.536;2024-02-21T02:51:42;8.30;81.20
52034;DHT22;38045;52.988;6.536;2024-02-21T02:54:09;8.30;81.10
52034;DHT22;38045;52.988;6.536;2024-02-21T02:56:34;8.30;81.20
52034;DHT22;38045;52.988;6.536;2024-02-21T02:59:00;8.20;81.10
52034;DHT22;38045;52.988;6.536;2024-02-21T03:01:25;8.30;81.30
52034;DHT22;38045;52.988;6.536;2024-02-21T03:03:51;8.30;81.20
52034;DHT22;38045;52.988;6.536;2024-02-21T03:06:17;8.20;81.20
52034;DHT22;38045;52.988;6.536;2024-02-21T03:08:42;8.20;81.40
52034;DHT22;38045;52.988;6.536;2024-02-21T03:11:08;8.20;81.20
52034;DHT22;38045;52.988;6.536;2024-02-21T03:13:34;8.30;81.30
52034;DHT22;38045;52.988;6.536;2024-02-21T03:15:59;8.30;81.30
52034;DHT22;38045;52.988;6.536;2024-02-21T03:18:25;8.30;81.20
52034;DHT22;38045;52.988;6.536;2024-02-21T03:20:50;8.30;81.30
52034;DHT22;38045;52.988;6.536;2024-02-21T03:23:16;8.30;81.30
52034;DHT22;38045;52.988;6.536;2024-02-21T03:25:42;8.30;81.30
52034;DHT22;38045;52.988;6.536;2024-02-21T03:28:07;8.30;81.30
52034;DHT22;38045;52.988;6.536;2024-02-21T03:30:33;8.30;81.30
52034;DHT22;38045;52.988;6.536;2024-02-21T03:32:59;8.30;81.30
52034;DHT22;38045;52.988;6.536;2024-02-21T03:35:24;8.20;81.50
52034;DHT22;38045;52.988;6.536;2024-02-21T03:37:52;8.30;81.40
52034;DHT22;38045;52.988;6.536;2024-02-21T03:40:18;8.30;81.30
52034;DHT22;38045;52.988;6.536;2024-02-21T03:42:44;8.30;81.30
52034;DHT22;38045;52.988;6.536;2024-02-21T03:45:09;8.30;81.30
52034;DHT22;38045;52.988;6.536;2024-02-21T03:47:35;8.30;81.30
52034;DHT22;38045;52.988;6.536;2024-02-21T03:50:01;8.30;81.40
52034;DHT22;38045;52.988;6.536;2024-02-21T03:52:26;8.30;81.50
52034;DHT22;38045;52.988;6.536;2024-02-21T03:54:52;8.30;81.30
52034;DHT22;38045;52.988;6.536;2024-02-21T03:57:20;8.30;81.50
52034;DHT22;38045;52.988;6.536;2024-02-21T03:59:49;8.30;81.50
52034;DHT22;38045;52.988;6.536;2024-02-21T04:02:15;8.30;81.50
52034;DHT22;38045;52.988;6.536;2024-02-21T04:04:45;8.30;81.50
52034;DHT22;38045;52.988;6.536;2024-02-21T04:07:14;8.30;81.60
52034;DHT22;38045;52.988;6.536;2024-02-21T04:09:40;8.30;81.60
52034;DHT22;38045;52.988;6.536;2024-02-21T04:12:07;8.30;81.60
52034;DHT22;38045;52.988;6.536;2024-02-21T04:14:33;8.30;81.60
52034;DHT22;38045;52.988;6.536;2024-02-21T04:17:00;8.30;81.60
52034;DHT22;38045;52.988;6.536;2024-02-21T04:19:25;8.30;81.70
52034;DHT22;38045;52.988;6.536;2024-02-21T04:21:51;8.30;81.60
52034;DHT22;38045;52.988;6.536;2024-02-21T04:24:17;8.30;81.70
52034;DHT22;38045;52.988;6.536;2024-02-21T04:26:42;8.30;81.70
52034;DHT22;38045;52.988;6.536;2024-02-21T04:29:09;8.30;81.70
52034;DHT22;38045;52.988;6.536;2024-02-21T04:31:34;8.30;81.70
52034;DHT22;38045;52.988;6.536;2024-02-21T04:34:00;8.20;81.70
52034;DHT22;38045;52.988;6.536;2024-02-21T04:36:26;8.30;81.80
52034;DHT22;38045;52.988;6.536;2024-02-21T04:38:51;8.30;81.70
52034;DHT22;38045;52.988;6.536;2024-02-21T04:41:17;8.20;81.80
52034;DHT22;38045;52.988;6.536;2024-02-21T04:43:43;8.20;81.80
52034;DHT22;38045;52.988;6.536;2024-02-21T04:46:08;8.20;81.90
52034;DHT22;38045;52.988;6.536;2024-02-21T04:48:35;8.20;82.00
52034;DHT22;38045;52.988;6.536;2024-02-21T04:51:00;8.20;81.90
52034;DHT22;38045;52.988;6.536;2024-02-21T04:53:26;8.20;81.90
52034;DHT22;38045;52.988;6.536;2024-02-21T04:55:51;8.20;81.90
52034;DHT22;38045;52.988;6.536;2024-02-21T04:58:17;8.20;81.90
52034;DHT22;38045;52.988;6.536;2024-02-21T05:00:43;8.20;81.80
52034;DHT22;38045;52.988;6.536;2024-02-21T05:03:08;8.20;81.90
52034;DHT22;38045;52.988;6.536;2024-02-21T05:05:34;8.20;81.90
52034;DHT22;38045;52.988;6.536;2024-02-21T05:07:59;8.20;81.90
52034;DHT22;38045;52.988;6.536;2024-02-21T05:10:25;8.20;81.90
52034;DHT22;38045;52.988;6.536;2024-02-21T05:12:51;8.20;82.00
52034;DHT22;38045;52.988;6.536;2024-02-21T05:15:16;8.20;82.00
52034;DHT22;38045;52.988;6.536;2024-02-21T05:17:42;8.20;82.00
52034;DHT22;38045;52.988;6.536;2024-02-21T05:20:09;8.20;82.00
52034;DHT22;38045;52.988;6.536;2024-02-21T05:22:34;8.20;81.90
52034;DHT22;38045;52.988;6.536;2024-02-21T05:25:00;8.20;81.90
52034;DHT22;38045;52.988;6.536;2024-02-21T05:27:26;8.20;81.90
52034;DHT22;38045;52.988;6.536;2024-02-21T05:29:53;8.20;81.90
52034;DHT22;38045;52.988;6.536;2024-02-21T05:32:19;8.20;81.90
52034;DHT22;38045;52.988;6.536;2024-02-21T05:34:44;8.20;81.90
52034;DHT22;38045;52.988;6.536;2024-02-21T05:37:13;8.20;81.90
52034;DHT22;38045;52.988;6.536;2024-02-21T05:39:39;8.20;81.80
52034;DHT22;38045;52.988;6.536;2024-02-21T05:42:04;8.20;81.80
52034;DHT22;38045;52.988;6.536;2024-02-21T05:44:30;8.20;81.80
52034;DHT22;38045;52.988;6.536;2024-02-21T05:46:56;8.20;81.80
52034;DHT22;38045;52.988;6.536;2024-02-21T05:49:21;8.20;81.80
52034;DHT22;38045;52.988;6.536;2024-02-21T05:51:47;8.20;81.80
52034;DHT22;38045;52.988;6.536;2024-02-21T05:54:12;8.20;81.80
52034;DHT22;38045;52.988;6.536;2024-02-21T05:56:38;8.20;81.80
52034;DHT22;38045;52.988;6.536;2024-02-21T05:59:04;8.20;81.80
52034;DHT22;38045;52.988;6.536;2024-02-21T06:01:29;8.20;81.80
52034;DHT22;38045;52.988;6.536;2024-02-21T06:03:55;8.20;81.80
52034;DHT22;38045;52.988;6.536;2024-02-21T06:06:20;8.20;81.80
52034;DHT22;38045;52.988;6.536;2024-02-21T06:08:47;8.20;81.80
52034;DHT22;38045;52.988;6.536;2024-02-21T06:11:13;8.20;81.80
52034;DHT22;38045;52.988;6.536;2024-02-21T06:13:40;8.20;81.70
52034;DHT22;38045;52.988;6.536;2024-02-21T06:16:07;8.20;81.70
52034;DHT22;38045;52.988;6.536;2024-02-21T06:18:35;8.20;81.70
52034;DHT22;38045;52.988;6.536;2024-02-21T06:21:01;8.30;81.70
52034;DHT22;38045;52.988;6.536;2024-02-21T06:23:26;8.20;81.70
52034;DHT22;38045;52.988;6.536;2024-02-21T06:25:52;8.30;81.70
52034;DHT22;38045;52.988;6.536;2024-02-21T06:28:17;8.20;81.70
52034;DHT22;38045;52.988;6.536;2024-02-21T06:30:43;8.20;81.70
52034;DHT22;38045;52.988;6.536;2024-02-21T06:33:09;8.20;81.70
52034;DHT22;38045;52.988;6.536;2024-02-21T06:35:34;8.20;81.70
52034;DHT22;38045;52.988;6.536;2024-02-21T06:38:00;8.20;81.80
52034;DHT22;38045;52.988;6.536;2024-02-21T06:40:25;8.20;81.80
52034;DHT22;38045;52.988;6.536;2024-02-21T06:42:51;8.20;81.80
52034;DHT22;38045;52.988;6.536;2024-02-21T06:45:17;8.20;81.70
52034;DHT22;38045;52.988;6.536;2024-02-21T06:47:43;8.30;81.80
52034;DHT22;38045;52.988;6.536;2024-02-21T06:50:09;8.30;81.80
52034;DHT22;38045;52.988;6.536;2024-02-21T06:52:38;8.20;81.70
52034;DHT22;38045;52.988;6.536;2024-02-21T06:55:04;8.20;81.80
52034;DHT22;38045;52.988;6.536;2024-02-21T06:57:30;8.30;81.80
52034;DHT22;38045;52.988;6.536;2024-02-21T06:59:55;8.30;81.80
52034;DHT22;38045;52.988;6.536;2024-02-21T07:02:21;8.20;81.80
52034;DHT22;38045;52.988;6.536;2024-02-21T07:04:47;8.20;81.80
52034;DHT22;38045;52.988;6.536;2024-02-21T07:07:12;8.20;81.80
52034;DHT22;38045;52.988;6.536;2024-02-21T07:09:38;8.30;81.70
52034;DHT22;38045;52.988;6.536;2024-02-21T07:12:04;8.30;81.70
52034;DHT22;38045;52.988;6.536;2024-02-21T07:14:32;8.20;81.70
52034;DHT22;38045;52.988;6.536;2024-02-21T07:16:57;8.20;81.80
52034;DHT22;38045;52.988;6.536;2024-02-21T07:19:23;8.20;81.70
52034;DHT22;38045;52.988;6.536;2024-02-21T07:21:48;8.20;81.80
52034;DHT22;38045;52.988;6.536;2024-02-21T07:24:14;8.20;81.90
52034;DHT22;38045;52.988;6.536;2024-02-21T07:26:44;8.20;81.90
52034;DHT22;38045;52.988;6.536;2024-02-21T07:29:10;8.20;81.80
52034;DHT22;38045;52.988;6.536;2024-02-21T07:31:41;8.20;81.80
52034;DHT22;38045;52.988;6.536;2024-02-21T07:34:06;8.20;81.90
52034;DHT22;38045;52.988;6.536;2024-02-21T07:36:32;8.20;81.80
52034;DHT22;38045;52.988;6.536;2024-02-21T07:38:58;8.20;81.80
52034;DHT22;38045;52.988;6.536;2024-02-21T07:41:24;8.20;81.70
52034;DHT22;38045;52.988;6.536;2024-02-21T07:43:50;8.20;81.70
52034;DHT22;38045;52.988;6.536;2024-02-21T07:46:17;8.20;81.80
52034;DHT22;38045;52.988;6.536;2024-02-21T07:48:44;8.20;81.70
52034;DHT22;38045;52.988;6.536;2024-02-21T07:51:10;8.20;81.70
52034;DHT22;38045;52.988;6.536;2024-02-21T07:53:36;8.20;81.70
52034;DHT22;38045;52.988;6.536;2024-02-21T07:56:02;8.20;81.70
52034;DHT22;38045;52.988;6.536;2024-02-21T07:58:28;8.20;81.70
52034;DHT22;38045;52.988;6.536;2024-02-21T08:00:53;8.20;81.70
52034;DHT22;38045;52.988;6.536;2024-02-21T08:03:19;8.20;81.70
52034;DHT22;38045;52.988;6.536;2024-02-21T08:05:46;8.20;81.70
52034;DHT22;38045;52.988;6.536;2024-02-21T08:08:12;8.30;81.70
52034;DHT22;38045;52.988;6.536;2024-02-21T08:10:43;8.30;81.70
52034;DHT22;38045;52.988;6.536;2024-02-21T08:13:09;8.20;81.40
52034;DHT22;38045;52.988;6.536;2024-02-21T08:15:34;8.20;81.50
52034;DHT22;38045;52.988;6.536;2024-02-21T08:18:00;8.20;81.50
52034;DHT22;38045;52.988;6.536;2024-02-21T08:20:27;8.20;81.40
52034;DHT22;38045;52.988;6.536;2024-02-21T08:22:53;8.20;81.30
52034;DHT22;38045;52.988;6.536;2024-02-21T08:25:18;8.20;81.20
52034;DHT22;38045;52.988;6.536;2024-02-21T08:27:44;8.20;81.20
52034;DHT22;38045;52.988;6.536;2024-02-21T08:30:11;8.20;81.10
52034;DHT22;38045;52.988;6.536;2024-02-21T08:32:37;8.20;81.00
52034;DHT22;38045;52.988;6.536;2024-02-21T08:35:02;8.20;80.90
52034;DHT22;38045;52.988;6.536;2024-02-21T08:37:28;8.20;80.90
52034;DHT22;38045;52.988;6.536;2024-02-21T08:39:54;8.30;80.80
52034;DHT22;38045;52.988;6.536;2024-02-21T08:42:19;8.30;80.90
52034;DHT22;38045;52.988;6.536;2024-02-21T08:44:45;8.30;80.80
52034;DHT22;38045;52.988;6.536;2024-02-21T08:47:11;8.30;80.60
52034;DHT22;38045;52.988;6.536;2024-02-21T08:49:38;8.30;80.50
52034;DHT22;38045;52.988;6.536;2024-02-21T08:52:04;8.30;80.50
52034;DHT22;38045;52.988;6.536;2024-02-21T08:54:31;8.30;80.60
52034;DHT22;38045;52.988;6.536;2024-02-21T08:56:57;8.30;80.60
52034;DHT22;38045;52.988;6.536;2024-02-21T08:59:23;8.40;80.20
52034;DHT22;38045;52.988;6.536;2024-02-21T09:01:49;8.40;80.40
52034;DHT22;38045;52.988;6.536;2024-02-21T09:04:14;8.40;80.30
52034;DHT22;38045;52.988;6.536;2024-02-21T09:06:40;8.40;80.50
52034;DHT22;38045;52.988;6.536;2024-02-21T09:09:08;8.40;80.20
52034;DHT22;38045;52.988;6.536;2024-02-21T09:11:35;8.40;80.00
52034;DHT22;38045;52.988;6.536;2024-02-21T09:14:00;8.40;80.00
52034;DHT22;38045;52.988;6.536;2024-02-21T09:16:26;8.40;80.10
52034;DHT22;38045;52.988;6.536;2024-02-21T09:18:51;8.40;80.10
52034;DHT22;38045;52.988;6.536;2024-02-21T09:21:18;8.40;80.10
52034;DHT22;38045;52.988;6.536;2024-02-21T09:23:44;8.40;79.80
52034;DHT22;38045;52.988;6.536;2024-02-21T09:26:10;8.40;79.90
52034;DHT22;38045;52.988;6.536;2024-02-21T09:28:39;8.40;79.80
52034;DHT22;38045;52.988;6.536;2024-02-21T09:31:05;8.40;79.80
52034;DHT22;38045;52.988;6.536;2024-02-21T09:33:30;8.40;79.70
52034;DHT22;38045;52.988;6.536;2024-02-21T09:35:56;8.40;79.70
52034;DHT22;38045;52.988;6.536;2024-02-21T09:38:22;8.40;79.60
52034;DHT22;38045;52.988;6.536;2024-02-21T09:40:48;8.40;79.40
52034;DHT22;38045;52.988;6.536;2024-02-21T09:43:18;8.40;79.50
52034;DHT22;38045;52.988;6.536;2024-02-21T09:45:46;8.40;79.10
52034;DHT22;38045;52.988;6.536;2024-02-21T09:51:02;8.40;79.20
52034;DHT22;38045;52.988;6.536;2024-02-21T09:53:31;8.40;79.20
52034;DHT22;38045;52.988;6.536;2024-02-21T09:55:58;8.40;79.40
52034;DHT22;38045;52.988;6.536;2024-02-21T09:58:26;8.40;79.20
52034;DHT22;38045;52.988;6.536;2024-02-21T10:00:52;8.50;79.10
52034;DHT22;38045;52.988;6.536;2024-02-21T10:03:18;8.50;78.50
52034;DHT22;38045;52.988;6.536;2024-02-21T10:05:48;8.50;78.50
52034;DHT22;38045;52.988;6.536;2024-02-21T10:08:15;8.50;78.20
52034;DHT22;38045;52.988;6.536;2024-02-21T10:10:45;8.60;78.30
52034;DHT22;38045;52.988;6.536;2024-02-21T10:13:21;8.60;78.30
52034;DHT22;38045;52.988;6.536;2024-02-21T10:15:47;8.60;78.40
52034;DHT22;38045;52.988;6.536;2024-02-21T10:18:17;8.60;78.40
52034;DHT22;38045;52.988;6.536;2024-02-21T10:20:43;8.70;77.20
52034;DHT22;38045;52.988;6.536;2024-02-21T10:23:09;8.80;77.70
52034;DHT22;38045;52.988;6.536;2024-02-21T10:25:35;8.80;77.90
52034;DHT22;38045;52.988;6.536;2024-02-21T10:28:04;8.80;76.90
52034;DHT22;38045;52.988;6.536;2024-02-21T10:30:29;8.90;76.80
52034;DHT22;38045;52.988;6.536;2024-02-21T10:32:55;8.90;76.90
52034;DHT22;38045;52.988;6.536;2024-02-21T10:35:32;8.90;76.00
52034;DHT22;38045;52.988;6.536;2024-02-21T10:37:59;8.90;76.60
52034;DHT22;38045;52.988;6.536;2024-02-21T10:40:29;8.90;76.40
52034;DHT22;38045;52.988;6.536;2024-02-21T10:43:02;9.00;76.40
52034;DHT22;38045;52.988;6.536;2024-02-21T10:45:30;9.00;76.50
52034;DHT22;38045;52.988;6.536;2024-02-21T10:48:10;9.00;75.70
52034;DHT22;38045;52.988;6.536;2024-02-21T10:51:17;9.00;75.80
52034;DHT22;38045;52.988;6.536;2024-02-21T10:53:54;9.00;75.90
52034;DHT22;38045;52.988;6.536;2024-02-21T10:56:33;9.10;76.30
52034;DHT22;38045;52.988;6.536;2024-02-21T10:59:04;9.20;74.60
52034;DHT22;38045;52.988;6.536;2024-02-21T11:01:31;9.20;75.00
52034;DHT22;38045;52.988;6.536;2024-02-21T11:03:59;9.20;75.20
52034;DHT22;38045;52.988;6.536;2024-02-21T11:06:26;9.20;75.00
52034;DHT22;38045;52.988;6.536;2024-02-21T11:09:19;9.30;75.00
52034;DHT22;38045;52.988;6.536;2024-02-21T11:11:55;9.30;74.60
52034;DHT22;38045;52.988;6.536;2024-02-21T11:14:21;9.30;75.00
52034;DHT22;38045;52.988;6.536;2024-02-21T11:16:47;9.20;74.50
52034;DHT22;38045;52.988;6.536;2024-02-21T11:19:20;9.20;74.70
52034;DHT22;38045;52.988;6.536;2024-02-21T11:21:47;9.20;75.20
52034;DHT22;38045;52.988;6.536;2024-02-21T11:24:13;9.20;74.70
52034;DHT22;38045;52.988;6.536;2024-02-21T11:26:40;9.20;75.10
52034;DHT22;38045;52.988;6.536;2024-02-21T11:29:09;9.20;75.00
52034;DHT22;38045;52.988;6.536;2024-02-21T11:31:43;9.10;75.20
52034;DHT22;38045;52.988;6.536;2024-02-21T11:34:12;9.10;75.50
52034;DHT22;38045;52.988;6.536;2024-02-21T11:36:48;9.10;75.20
52034;DHT22;38045;52.988;6.536;2024-02-21T11:39:24;9.10;75.70
52034;DHT22;38045;52.988;6.536;2024-02-21T11:42:06;9.20;75.20
52034;DHT22;38045;52.988;6.536;2024-02-21T11:44:36;9.20;75.60
52034;DHT22;38045;52.988;6.536;2024-02-21T11:47:06;9.20;75.60
52034;DHT22;38045;52.988;6.536;2024-02-21T11:49:36;9.20;75.10
52034;DHT22;38045;52.988;6.536;2024-02-21T11:52:04;9.20;75.50
52034;DHT22;38045;52.988;6.536;2024-02-21T11:54:33;9.10;75.10
52034;DHT22;38045;52.988;6.536;2024-02-21T11:56:59;9.10;75.20
52034;DHT22;38045;52.988;6.536;2024-02-21T11:59:24;9.20;75.10
52034;DHT22;38045;52.988;6.536;2024-02-21T12:01:50;9.20;75.20
52034;DHT22;38045;52.988;6.536;2024-02-21T12:04:20;9.20;75.00
52034;DHT22;38045;52.988;6.536;2024-02-21T12:06:46;9.20;74.60
52034;DHT22;38045;52.988;6.536;2024-02-21T12:09:18;9.20;75.00
52034;DHT22;38045;52.988;6.536;2024-02-21T12:11:44;9.20;74.60
52034;DHT22;38045;52.988;6.536;2024-02-21T12:14:10;9.20;74.20
52034;DHT22;38045;52.988;6.536;2024-02-21T12:16:36;9.20;74.20
52034;DHT22;38045;52.988;6.536;2024-02-21T12:19:05;9.20;74.70
52034;DHT22;38045;52.988;6.536;2024-02-21T12:21:32;9.20;74.50
52034;DHT22;38045;52.988;6.536;2024-02-21T12:24:00;9.20;74.40
52034;DHT22;38045;52.988;6.536;2024-02-21T12:26:25;9.20;74.40
52034;DHT22;38045;52.988;6.536;2024-02-21T12:28:53;9.20;73.60
52034;DHT22;38045;52.988;6.536;2024-02-21T12:31:19;9.20;74.20
52034;DHT22;38045;52.988;6.536;2024-02-21T12:33:46;9.30;74.20
52034;DHT22;38045;52.988;6.536;2024-02-21T12:36:12;9.40;73.90
52034;DHT22;38045;52.988;6.536;2024-02-21T12:38:38;9.40;74.20
52034;DHT22;38045;52.988;6.536;2024-02-21T12:41:03;9.40;73.90
52034;DHT22;38045;52.988;6.536;2024-02-21T12:43:29;9.40;73.60
52034;DHT22;38045;52.988;6.536;2024-02-21T12:45:55;9.40;73.50
52034;DHT22;38045;52.988;6.536;2024-02-21T12:48:20;9.40;73.10
52034;DHT22;38045;52.988;6.536;2024-02-21T12:50:49;9.40;73.20
52034;DHT22;38045;52.988;6.536;2024-02-21T12:53:17;9.40;72.80
52034;DHT22;38045;52.988;6.536;2024-02-21T12:55:45;9.40;72.90
52034;DHT22;38045;52.988;6.536;2024-02-21T12:58:10;9.40;73.10
52034;DHT22;38045;52.988;6.536;2024-02-21T13:00:36;9.30;72.80
52034;DHT22;38045;52.988;6.536;2024-02-21T13:03:05;9.30;73.00
52034;DHT22;38045;52.988;6.536;2024-02-21T13:05:31;9.30;72.50
52034;DHT22;38045;52.988;6.536;2024-02-21T13:08:00;9.40;73.00
52034;DHT22;38045;52.988;6.536;2024-02-21T13:10:26;9.40;72.60
52034;DHT22;38045;52.988;6.536;2024-02-21T13:12:52;9.40;72.70
52034;DHT22;38045;52.988;6.536;2024-02-21T13:15:18;9.40;72.70
52034;DHT22;38045;52.988;6.536;2024-02-21T13:17:44;9.40;72.90
52034;DHT22;38045;52.988;6.536;2024-02-21T13:20:10;9.40;72.30
52034;DHT22;38045;52.988;6.536;2024-02-21T13:22:36;9.40;72.20
52034;DHT22;38045;52.988;6.536;2024-02-21T13:25:03;9.40;72.50
52034;DHT22;38045;52.988;6.536;2024-02-21T13:27:28;9.40;72.50
52034;DHT22;38045;52.988;6.536;2024-02-21T13:29:54;9.40;72.70
52034;DHT22;38045;52.988;6.536;2024-02-21T13:32:20;9.50;72.20
52034;DHT22;38045;52.988;6.536;2024-02-21T13:34:45;9.50;72.10
52034;DHT22;38045;52.988;6.536;2024-02-21T13:37:11;9.50;72.10
52034;DHT22;38045;52.988;6.536;2024-02-21T13:39:37;9.50;72.00
52034;DHT22;38045;52.988;6.536;2024-02-21T13:42:03;9.50;72.50
52034;DHT22;38045;52.988;6.536;2024-02-21T13:44:31;9.50;72.10
52034;DHT22;38045;52.988;6.536;2024-02-21T13:46:57;9.50;71.90
52034;DHT22;38045;52.988;6.536;2024-02-21T13:49:22;9.50;72.60
52034;DHT22;38045;52.988;6.536;2024-02-21T13:51:48;9.50;72.70
52034;DHT22;38045;52.988;6.536;2024-02-21T13:54:14;9.60;72.30
52034;DHT22;38045;52.988;6.536;2024-02-21T13:56:42;9.50;72.00
52034;DHT22;38045;52.988;6.536;2024-02-21T13:59:08;9.50;72.20
52034;DHT22;38045;52.988;6.536;2024-02-21T14:01:34;9.50;72.00
52034;DHT22;38045;52.988;6.536;2024-02-21T14:04:01;9.50;72.20
52034;DHT22;38045;52.988;6.536;2024-02-21T14:06:27;9.40;71.90
52034;DHT22;38045;52.988;6.536;2024-02-21T14:08:53;9.40;72.00
52034;DHT22;38045;52.988;6.536;2024-02-21T14:11:18;9.40;72.00
52034;DHT22;38045;52.988;6.536;2024-02-21T14:13:44;9.30;72.20
52034;DHT22;38045;52.988;6.536;2024-02-21T14:16:10;9.30;72.30
52034;DHT22;38045;52.988;6.536;2024-02-21T14:18:40;9.20;72.20
52034;DHT22;38045;52.988;6.536;2024-02-21T14:21:09;9.20;72.40
52034;DHT22;38045;52.988;6.536;2024-02-21T14:23:38;9.20;72.20
52034;DHT22;38045;52.988;6.536;2024-02-21T14:26:04;9.20;72.20
52034;DHT22;38045;52.988;6.536;2024-02-21T14:28:30;9.20;72.30
52034;DHT22;38045;52.988;6.536;2024-02-21T14:30:56;9.20;72.40
52034;DHT22;38045;52.988;6.536;2024-02-21T14:33:28;9.20;72.50
52034;DHT22;38045;52.988;6.536;2024-02-21T14:35:54;9.20;72.20
52034;DHT22;38045;52.988;6.536;2024-02-21T14:38:20;9.20;72.50
52034;DHT22;38045;52.988;6.536;2024-02-21T14:40:45;9.20;72.20
52034;DHT22;38045;52.988;6.536;2024-02-21T14:43:11;9.10;72.50
52034;DHT22;38045;52.988;6.536;2024-02-21T14:45:37;9.20;72.20
52034;DHT22;38045;52.988;6.536;2024-02-21T14:48:04;9.10;72.40
52034;DHT22;38045;52.988;6.536;2024-02-21T14:50:30;9.10;72.20
52034;DHT22;38045;52.988;6.536;2024-02-21T14:52:55;9.10;72.50
52034;DHT22;38045;52.988;6.536;2024-02-21T14:55:21;9.10;72.40
52034;DHT22;38045;52.988;6.536;2024-02-21T14:57:47;9.10;72.50
52034;DHT22;38045;52.988;6.536;2024-02-21T15:00:12;9.10;72.10
52034;DHT22;38045;52.988;6.536;2024-02-21T15:02:39;9.10;72.20
52034;DHT22;38045;52.988;6.536;2024-02-21T15:05:05;9.10;72.20
52034;DHT22;38045;52.988;6.536;2024-02-21T15:07:31;9.10;72.40
52034;DHT22;38045;52.988;6.536;2024-02-21T15:09:57;9.10;72.50
52034;DHT22;38045;52.988;6.536;2024-02-21T15:12:23;9.00;72.20
52034;DHT22;38045;52.988;6.536;2024-02-21T15:14:49;9.10;72.30
52034;DHT22;38045;52.988;6.536;2024-02-21T15:17:15;9.10;72.20
52034;DHT22;38045;52.988;6.536;2024-02-21T15:19:41;9.10;72.30
52034;DHT22;38045;52.988;6.536;2024-02-21T15:22:10;9.10;72.30
52034;DHT22;38045;52.988;6.536;2024-02-21T15:24:39;9.10;72.20
52034;DHT22;38045;52.988;6.536;2024-02-21T15:27:05;9.10;72.30
52034;DHT22;38045;52.988;6.536;2024-02-21T15:29:31;9.10;72.20
52034;DHT22;38045;52.988;6.536;2024-02-21T15:31:57;9.10;72.10
52034;DHT22;38045;52.988;6.536;2024-02-21T15:34:23;9.10;72.10
52034;DHT22;38045;52.988;6.536;2024-02-21T15:36:49;9.10;72.20
52034;DHT22;38045;52.988;6.536;2024-02-21T15:39:14;9.10;72.10
52034;DHT22;38045;52.988;6.536;2024-02-21T15:41:40;9.10;72.30
52034;DHT22;38045;52.988;6.536;2024-02-21T15:44:06;9.10;72.20